sensor_id;sensor_type;location;lat;lon;timestamp;P1;durP1;ratioP1;P2;durP2;ratioP2
15454;SDS011;21057;51.024;7.540;2023-08-24T00:00:15;20.02;;;18.73;;
15454;SDS011;21057;51.024;7.540;2023-08-24T00:02:43;20.70;;;19.23;;
15454;SDS011;21057;51.024;7.540;2023-08-24T00:05:09;20.80;;;19.48;;
15454;SDS011;21057;51.024;7.540;2023-08-24T00:07:36;21.05;;;19.58;;
15454;SDS011;21057;51.024;7.540;2023-08-24T00:10:03;20.98;;;19.63;;
15454;SDS011;21057;51.024;7.540;2023-08-24T00:12:33;21.38;;;19.77;;
15454;SDS011;21057;51.024;7.540;2023-08-24T00:15:00;20.17;;;18.77;;
15454;SDS011;21057;51.024;7.540;2023-08-24T00:17:27;21.88;;;20.17;;
15454;SDS011;21057;51.024;7.540;2023-08-24T00:19:54;21.10;;;19.60;;
15454;SDS011;21057;51.024;7.540;2023-08-24T00:22:21;20.75;;;19.27;;
15454;SDS011;21057;51.024;7.540;2023-08-24T00:24:48;21.23;;;19.63;;
15454;SDS011;21057;51.024;7.540;2023-08-24T00:27:15;21.20;;;19.58;;
15454;SDS011;21057;51.024;7.540;2023-08-24T00:29:43;20.60;;;19.27;;
15454;SDS011;21057;51.024;7.540;2023-08-24T00:32:10;20.70;;;19.20;;
15454;SDS011;21057;51.024;7.540;2023-08-24T00:34:37;20.60;;;19.30;;
15454;SDS011;21057;51.024;7.540;2023-08-24T00:37:03;20.88;;;19.52;;
15454;SDS011;21057;51.024;7.540;2023-08-24T00:39:30;20.67;;;19.38;;
15454;SDS011;21057;51.024;7.540;2023-08-24T00:41:58;21.00;;;19.60;;
15454;SDS011;21057;51.024;7.540;2023-08-24T00:44:24;20.60;;;18.90;;
15454;SDS011;21057;51.024;7.540;2023-08-24T00:46:53;20.17;;;18.98;;
15454;SDS011;21057;51.024;7.540;2023-08-24T00:49:20;21.00;;;19.65;;
15454;SDS011;21057;51.024;7.540;2023-08-24T00:51:48;20.70;;;19.20;;
15454;SDS011;21057;51.024;7.540;2023-08-24T00:54:15;20.27;;;18.92;;
15454;SDS011;21057;51.024;7.540;2023-08-24T00:56:42;20.90;;;19.17;;
15454;SDS011;21057;51.024;7.540;2023-08-24T00:59:09;20.00;;;18.77;;
15454;SDS011;21057;51.024;7.540;2023-08-24T01:01:37;19.77;;;18.50;;
15454;SDS011;21057;51.024;7.540;2023-08-24T01:04:07;20.00;;;18.42;;
15454;SDS011;21057;51.024;7.540;2023-08-24T01:06:36;20.55;;;18.88;;
15454;SDS011;21057;51.024;7.540;2023-08-24T01:09:03;20.40;;;19.10;;
15454;SDS011;21057;51.024;7.540;2023-08-24T01:11:32;19.80;;;18.58;;
15454;SDS011;21057;51.024;7.540;2023-08-24T01:14:09;20.92;;;19.40;;
15454;SDS011;21057;51.024;7.540;2023-08-24T01:16:46;19.85;;;18.55;;
15454;SDS011;21057;51.024;7.540;2023-08-24T01:19:21;20.40;;;18.98;;
15454;SDS011;21057;51.024;7.540;2023-08-24T01:22:02;20.25;;;18.92;;
15454;SDS011;21057;51.024;7.540;2023-08-24T01:24:36;20.88;;;19.45;;
15454;SDS011;21057;51.024;7.540;2023-08-24T01:27:09;20.10;;;18.77;;
15454;SDS011;21057;51.024;7.540;2023-08-24T01:29:37;20.35;;;19.05;;
15454;SDS011;21057;51.024;7.540;2023-08-24T01:32:09;19.95;;;18.65;;
15454;SDS011;21057;51.024;7.540;2023-08-24T01:34:36;20.55;;;19.17;;
15454;SDS011;21057;51.024;7.540;2023-08-24T01:37:04;20.83;;;19.33;;
15454;SDS011;21057;51.024;7.540;2023-08-24T01:39:34;20.92;;;19.38;;
15454;SDS011;21057;51.024;7.540;2023-08-24T01:42:08;20.38;;;19.13;;
15454;SDS011;21057;51.024;7.540;2023-08-24T01:44:41;20.95;;;19.45;;
15454;SDS011;21057;51.024;7.540;2023-08-24T01:47:13;21.35;;;19.75;;
15454;SDS011;21057;51.024;7.540;2023-08-24T01:49:40;20.92;;;19.52;;
15454;SDS011;21057;51.024;7.540;2023-08-24T01:52:07;21.77;;;20.13;;
15454;SDS011;21057;51.024;7.540;2023-08-24T01:54:35;20.70;;;19.30;;
15454;SDS011;21057;51.024;7.540;2023-08-24T01:57:04;20.88;;;19.60;;
15454;SDS011;21057;51.024;7.540;2023-08-24T01:59:32;20.40;;;19.20;;
15454;SDS011;21057;51.024;7.540;2023-08-24T02:01:59;21.23;;;19.83;;
15454;SDS011;21057;51.024;7.540;2023-08-24T02:04:26;21.33;;;19.73;;
15454;SDS011;21057;51.024;7.540;2023-08-24T02:06:53;19.98;;;18.48;;
15454;SDS011;21057;51.024;7.540;2023-08-24T02:09:19;20.33;;;18.92;;
15454;SDS011;21057;51.024;7.540;2023-08-24T02:11:46;20.42;;;19.08;;
15454;SDS011;21057;51.024;7.540;2023-08-24T02:14:13;20.10;;;18.63;;
15454;SDS011;21057;51.024;7.540;2023-08-24T02:16:41;20.02;;;18.52;;
15454;SDS011;21057;51.024;7.540;2023-08-24T02:19:08;20.35;;;18.90;;
15454;SDS011;21057;51.024;7.540;2023-08-24T02:21:35;19.65;;;18.30;;
15454;SDS011;21057;51.024;7.540;2023-08-24T02:24:02;20.33;;;18.80;;
15454;SDS011;21057;51.024;7.540;2023-08-24T02:26:30;19.55;;;18.35;;
15454;SDS011;21057;51.024;7.540;2023-08-24T02:28:57;21.23;;;19.73;;
15454;SDS011;21057;51.024;7.540;2023-08-24T02:31:24;20.42;;;19.08;;
15454;SDS011;21057;51.024;7.540;2023-08-24T02:33:52;20.45;;;19.05;;
15454;SDS011;21057;51.024;7.540;2023-08-24T02:36:19;20.23;;;18.83;;
15454;SDS011;21057;51.024;7.540;2023-08-24T02:38:46;19.52;;;18.33;;
15454;SDS011;21057;51.024;7.540;2023-08-24T02:41:13;19.80;;;18.42;;
15454;SDS011;21057;51.024;7.540;2023-08-24T02:43:40;19.05;;;17.85;;
15454;SDS011;21057;51.024;7.540;2023-08-24T02:46:07;20.17;;;18.77;;
15454;SDS011;21057;51.024;7.540;2023-08-24T02:48:35;19.58;;;18.30;;
15454;SDS011;21057;51.024;7.540;2023-08-24T02:51:05;20.13;;;18.83;;
15454;SDS011;21057;51.024;7.540;2023-08-24T02:53:32;19.67;;;18.42;;
15454;SDS011;21057;51.024;7.540;2023-08-24T02:55:59;19.90;;;18.40;;
15454;SDS011;21057;51.024;7.540;2023-08-24T02:58:26;19.75;;;18.40;;
15454;SDS011;21057;51.024;7.540;2023-08-24T03:00:53;20.35;;;18.75;;
15454;SDS011;21057;51.024;7.540;2023-08-24T03:03:19;19.20;;;18.00;;
15454;SDS011;21057;51.024;7.540;2023-08-24T03:05:53;20.13;;;18.85;;
15454;SDS011;21057;51.024;7.540;2023-08-24T03:08:22;20.20;;;18.55;;
15454;SDS011;21057;51.024;7.540;2023-08-24T03:10:49;20.08;;;18.77;;
15454;SDS011;21057;51.024;7.540;2023-08-24T03:13:16;20.55;;;18.98;;
15454;SDS011;21057;51.024;7.540;2023-08-24T03:15:43;20.58;;;19.15;;
15454;SDS011;21057;51.024;7.540;2023-08-24T03:18:10;20.67;;;19.08;;
15454;SDS011;21057;51.024;7.540;2023-08-24T03:20:38;20.27;;;18.90;;
15454;SDS011;21057;51.024;7.540;2023-08-24T03:23:05;20.55;;;19.23;;
15454;SDS011;21057;51.024;7.540;2023-08-24T03:25:36;21.33;;;19.92;;
15454;SDS011;21057;51.024;7.540;2023-08-24T03:28:05;19.75;;;18.60;;
15454;SDS011;21057;51.024;7.540;2023-08-24T03:30:32;20.90;;;19.50;;
15454;SDS011;21057;51.024;7.540;2023-08-24T03:32:59;20.20;;;18.80;;
15454;SDS011;21057;51.024;7.540;2023-08-24T03:35:28;19.42;;;18.25;;
15454;SDS011;21057;51.024;7.540;2023-08-24T03:37:54;20.08;;;18.73;;
15454;SDS011;21057;51.024;7.540;2023-08-24T03:40:21;19.48;;;18.17;;
15454;SDS011;21057;51.024;7.540;2023-08-24T03:42:50;19.30;;;18.13;;
15454;SDS011;21057;51.024;7.540;2023-08-24T03:45:18;20.58;;;18.90;;
15454;SDS011;21057;51.024;7.540;2023-08-24T03:47:44;20.00;;;18.60;;
15454;SDS011;21057;51.024;7.540;2023-08-24T03:50:11;20.88;;;19.58;;
15454;SDS011;21057;51.024;7.540;2023-08-24T03:52:38;20.20;;;18.90;;
15454;SDS011;21057;51.024;7.540;2023-08-24T03:55:05;20.05;;;18.75;;
15454;SDS011;21057;51.024;7.540;2023-08-24T03:57:33;19.40;;;18.10;;
15454;SDS011;21057;51.024;7.540;2023-08-24T04:00:02;20.15;;;18.85;;
15454;SDS011;21057;51.024;7.540;2023-08-24T04:02:31;19.95;;;18.65;;
15454;SDS011;21057;51.024;7.540;2023-08-24T04:04:58;20.48;;;19.27;;
15454;SDS011;21057;51.024;7.540;2023-08-24T04:07:25;21.17;;;19.63;;
15454;SDS011;21057;51.024;7.540;2023-08-24T04:09:52;21.38;;;19.65;;
15454;SDS011;21057;51.024;7.540;2023-08-24T04:12:18;21.25;;;19.55;;
15454;SDS011;21057;51.024;7.540;2023-08-24T04:14:45;22.30;;;20.60;;
15454;SDS011;21057;51.024;7.540;2023-08-24T04:17:13;23.35;;;21.55;;
15454;SDS011;21057;51.024;7.540;2023-08-24T04:19:40;21.25;;;19.58;;
15454;SDS011;21057;51.024;7.540;2023-08-24T04:22:07;21.23;;;19.73;;
15454;SDS011;21057;51.024;7.540;2023-08-24T04:24:34;22.77;;;20.60;;
15454;SDS011;21057;51.024;7.540;2023-08-24T04:27:01;21.63;;;20.13;;
15454;SDS011;21057;51.024;7.540;2023-08-24T04:29:27;22.20;;;20.73;;
15454;SDS011;21057;51.024;7.540;2023-08-24T04:31:54;22.23;;;20.73;;
15454;SDS011;21057;51.024;7.540;2023-08-24T04:34:22;21.63;;;20.23;;
15454;SDS011;21057;51.024;7.540;2023-08-24T04:36:49;22.85;;;20.90;;
15454;SDS011;21057;51.024;7.540;2023-08-24T04:39:16;21.50;;;20.15;;
15454;SDS011;21057;51.024;7.540;2023-08-24T04:41:43;22.27;;;20.77;;
15454;SDS011;21057;51.024;7.540;2023-08-24T04:44:10;22.90;;;21.30;;
15454;SDS011;21057;51.024;7.540;2023-08-24T04:46:37;22.48;;;20.88;;
15454;SDS011;21057;51.024;7.540;2023-08-24T04:49:04;22.90;;;21.02;;
15454;SDS011;21057;51.024;7.540;2023-08-24T04:51:33;23.60;;;21.80;;
15454;SDS011;21057;51.024;7.540;2023-08-24T04:53:59;22.67;;;21.15;;
15454;SDS011;21057;51.024;7.540;2023-08-24T04:56:27;22.00;;;20.58;;
15454;SDS011;21057;51.024;7.540;2023-08-24T04:58:54;22.25;;;20.55;;
15454;SDS011;21057;51.024;7.540;2023-08-24T05:01:22;22.60;;;20.88;;
15454;SDS011;21057;51.024;7.540;2023-08-24T05:03:50;22.50;;;20.83;;
15454;SDS011;21057;51.024;7.540;2023-08-24T05:06:17;22.73;;;21.00;;
15454;SDS011;21057;51.024;7.540;2023-08-24T05:08:45;21.60;;;20.10;;
15454;SDS011;21057;51.024;7.540;2023-08-24T05:11:12;21.98;;;20.48;;
15454;SDS011;21057;51.024;7.540;2023-08-24T05:13:39;21.42;;;20.02;;
15454;SDS011;21057;51.024;7.540;2023-08-24T05:16:06;22.30;;;20.55;;
15454;SDS011;21057;51.024;7.540;2023-08-24T05:18:33;22.95;;;21.35;;
15454;SDS011;21057;51.024;7.540;2023-08-24T05:21:01;21.55;;;19.95;;
15454;SDS011;21057;51.024;7.540;2023-08-24T05:23:28;21.50;;;19.90;;
15454;SDS011;21057;51.024;7.540;2023-08-24T05:25:57;21.48;;;19.88;;
15454;SDS011;21057;51.024;7.540;2023-08-24T05:28:24;22.80;;;20.85;;
15454;SDS011;21057;51.024;7.540;2023-08-24T05:30:51;21.83;;;20.23;;
15454;SDS011;21057;51.024;7.540;2023-08-24T05:33:19;21.67;;;20.17;;
15454;SDS011;21057;51.024;7.540;2023-08-24T05:35:46;22.20;;;20.48;;
15454;SDS011;21057;51.024;7.540;2023-08-24T05:38:13;21.33;;;19.67;;
15454;SDS011;21057;51.024;7.540;2023-08-24T05:40:41;20.98;;;19.55;;
15454;SDS011;21057;51.024;7.540;2023-08-24T05:43:10;21.35;;;20.05;;
15454;SDS011;21057;51.024;7.540;2023-08-24T05:45:36;22.30;;;20.70;;
15454;SDS011;21057;51.024;7.540;2023-08-24T05:48:05;23.13;;;21.30;;
15454;SDS011;21057;51.024;7.540;2023-08-24T05:50:32;22.10;;;20.50;;
15454;SDS011;21057;51.024;7.540;2023-08-24T05:52:59;22.05;;;20.25;;
15454;SDS011;21057;51.024;7.540;2023-08-24T05:55:27;22.15;;;20.65;;
15454;SDS011;21057;51.024;7.540;2023-08-24T05:57:54;21.83;;;20.20;;
15454;SDS011;21057;51.024;7.540;2023-08-24T06:00:22;21.98;;;20.17;;
15454;SDS011;21057;51.024;7.540;2023-08-24T06:02:49;22.63;;;20.92;;
15454;SDS011;21057;51.024;7.540;2023-08-24T06:05:16;22.17;;;20.65;;
15454;SDS011;21057;51.024;7.540;2023-08-24T06:07:43;23.80;;;21.65;;
15454;SDS011;21057;51.024;7.540;2023-08-24T06:10:11;24.05;;;22.05;;
15454;SDS011;21057;51.024;7.540;2023-08-24T06:12:37;23.33;;;21.52;;
15454;SDS011;21057;51.024;7.540;2023-08-24T06:15:05;22.77;;;21.20;;
15454;SDS011;21057;51.024;7.540;2023-08-24T06:17:36;22.58;;;20.95;;
15454;SDS011;21057;51.024;7.540;2023-08-24T06:20:02;21.83;;;20.42;;
15454;SDS011;21057;51.024;7.540;2023-08-24T06:22:29;22.65;;;20.77;;
15454;SDS011;21057;51.024;7.540;2023-08-24T06:24:56;22.08;;;20.48;;
15454;SDS011;21057;51.024;7.540;2023-08-24T06:27:24;22.98;;;21.35;;
15454;SDS011;21057;51.024;7.540;2023-08-24T06:29:51;22.90;;;21.30;;
15454;SDS011;21057;51.024;7.540;2023-08-24T06:32:18;22.77;;;21.23;;
15454;SDS011;21057;51.024;7.540;2023-08-24T06:34:46;22.92;;;21.33;;
15454;SDS011;21057;51.024;7.540;2023-08-24T06:37:13;22.98;;;21.33;;
15454;SDS011;21057;51.024;7.540;2023-08-24T06:39:40;23.10;;;21.60;;
15454;SDS011;21057;51.024;7.540;2023-08-24T06:42:07;23.10;;;21.40;;
15454;SDS011;21057;51.024;7.540;2023-08-24T06:44:34;23.80;;;21.95;;
15454;SDS011;21057;51.024;7.540;2023-08-24T06:47:01;23.20;;;21.50;;
15454;SDS011;21057;51.024;7.540;2023-08-24T06:49:28;23.00;;;21.35;;
15454;SDS011;21057;51.024;7.540;2023-08-24T06:51:56;23.52;;;21.73;;
15454;SDS011;21057;51.024;7.540;2023-08-24T06:54:23;22.40;;;20.90;;
15454;SDS011;21057;51.024;7.540;2023-08-24T06:56:49;23.00;;;21.20;;
15454;SDS011;21057;51.024;7.540;2023-08-24T06:59:16;24.10;;;22.50;;
15454;SDS011;21057;51.024;7.540;2023-08-24T07:01:43;23.30;;;21.65;;
15454;SDS011;21057;51.024;7.540;2023-08-24T07:04:12;24.00;;;22.33;;
15454;SDS011;21057;51.024;7.540;2023-08-24T07:06:39;23.67;;;21.80;;
15454;SDS011;21057;51.024;7.540;2023-08-24T07:09:09;23.13;;;21.20;;
15454;SDS011;21057;51.024;7.540;2023-08-24T07:11:35;23.00;;;21.30;;
15454;SDS011;21057;51.024;7.540;2023-08-24T07:14:02;23.98;;;22.35;;
15454;SDS011;21057;51.024;7.540;2023-08-24T07:16:29;23.85;;;22.15;;
15454;SDS011;21057;51.024;7.540;2023-08-24T07:18:56;25.20;;;23.40;;
15454;SDS011;21057;51.024;7.540;2023-08-24T07:21:23;24.58;;;22.30;;
15454;SDS011;21057;51.024;7.540;2023-08-24T07:23:50;23.98;;;21.73;;
15454;SDS011;21057;51.024;7.540;2023-08-24T07:26:19;23.50;;;21.65;;
15454;SDS011;21057;51.024;7.540;2023-08-24T07:28:46;23.27;;;21.52;;
15454;SDS011;21057;51.024;7.540;2023-08-24T07:31:12;23.35;;;21.65;;
15454;SDS011;21057;51.024;7.540;2023-08-24T07:33:40;23.98;;;22.30;;
15454;SDS011;21057;51.024;7.540;2023-08-24T07:36:09;23.58;;;21.73;;
15454;SDS011;21057;51.024;7.540;2023-08-24T07:38:35;23.48;;;21.30;;
15454;SDS011;21057;51.024;7.540;2023-08-24T07:41:02;24.25;;;22.65;;
15454;SDS011;21057;51.024;7.540;2023-08-24T07:43:30;22.77;;;21.20;;
15454;SDS011;21057;51.024;7.540;2023-08-24T07:45:57;23.48;;;21.58;;
15454;SDS011;21057;51.024;7.540;2023-08-24T07:48:24;22.30;;;20.80;;
15454;SDS011;21057;51.024;7.540;2023-08-24T07:50:51;22.25;;;20.70;;
15454;SDS011;21057;51.024;7.540;2023-08-24T07:53:18;22.25;;;20.35;;
15454;SDS011;21057;51.024;7.540;2023-08-24T07:55:45;23.27;;;21.30;;
15454;SDS011;21057;51.024;7.540;2023-08-24T07:58:12;23.65;;;21.95;;
15454;SDS011;21057;51.024;7.540;2023-08-24T08:00:40;22.65;;;21.05;;
15454;SDS011;21057;51.024;7.540;2023-08-24T08:03:07;23.20;;;21.50;;
15454;SDS011;21057;51.024;7.540;2023-08-24T08:05:34;22.67;;;21.05;;
15454;SDS011;21057;51.024;7.540;2023-08-24T08:08:00;23.23;;;21.42;;
15454;SDS011;21057;51.024;7.540;2023-08-24T08:10:27;23.05;;;21.48;;
15454;SDS011;21057;51.024;7.540;2023-08-24T08:12:54;23.05;;;21.25;;
15454;SDS011;21057;51.024;7.540;2023-08-24T08:15:21;23.15;;;21.45;;
15454;SDS011;21057;51.024;7.540;2023-08-24T08:17:49;22.10;;;20.70;;
15454;SDS011;21057;51.024;7.540;2023-08-24T08:20:17;22.05;;;20.55;;
15454;SDS011;21057;51.024;7.540;2023-08-24T08:22:44;21.67;;;20.27;;
15454;SDS011;21057;51.024;7.540;2023-08-24T08:25:11;22.92;;;21.33;;
15454;SDS011;21057;51.024;7.540;2023-08-24T08:27:38;23.50;;;21.80;;
15454;SDS011;21057;51.024;7.540;2023-08-24T08:30:05;23.02;;;21.40;;
15454;SDS011;21057;51.024;7.540;2023-08-24T08:32:33;21.88;;;20.48;;
15454;SDS011;21057;51.024;7.540;2023-08-24T08:35:01;21.85;;;20.45;;
15454;SDS011;21057;51.024;7.540;2023-08-24T08:37:30;22.92;;;21.45;;
15454;SDS011;21057;51.024;7.540;2023-08-24T08:39:57;22.98;;;20.92;;
15454;SDS011;21057;51.024;7.540;2023-08-24T08:42:24;21.98;;;20.48;;
15454;SDS011;21057;51.024;7.540;2023-08-24T08:44:50;22.15;;;20.65;;
15454;SDS011;21057;51.024;7.540;2023-08-24T08:47:20;22.00;;;20.50;;
15454;SDS011;21057;51.024;7.540;2023-08-24T08:49:47;21.83;;;20.42;;
15454;SDS011;21057;51.024;7.540;2023-08-24T08:52:16;21.95;;;20.55;;
15454;SDS011;21057;51.024;7.540;2023-08-24T08:54:43;21.73;;;20.33;;
15454;SDS011;21057;51.024;7.540;2023-08-24T08:57:09;20.45;;;19.15;;
15454;SDS011;21057;51.024;7.540;2023-08-24T08:59:37;20.80;;;19.40;;
15454;SDS011;21057;51.024;7.540;2023-08-24T09:02:04;20.90;;;19.60;;
15454;SDS011;21057;51.024;7.540;2023-08-24T09:04:32;21.02;;;19.73;;
15454;SDS011;21057;51.024;7.540;2023-08-24T09:06:59;20.98;;;19.58;;
15454;SDS011;21057;51.024;7.540;2023-08-24T09:09:30;22.23;;;20.65;;
15454;SDS011;21057;51.024;7.540;2023-08-24T09:11:59;20.80;;;19.40;;
15454;SDS011;21057;51.024;7.540;2023-08-24T09:14:26;21.02;;;19.65;;
15454;SDS011;21057;51.024;7.540;2023-08-24T09:16:53;21.33;;;19.88;;
15454;SDS011;21057;51.024;7.540;2023-08-24T09:19:20;19.48;;;18.27;;
15454;SDS011;21057;51.024;7.540;2023-08-24T09:21:56;21.15;;;19.40;;
15454;SDS011;21057;51.024;7.540;2023-08-24T09:24:28;20.60;;;19.10;;
15454;SDS011;21057;51.024;7.540;2023-08-24T09:26:57;21.98;;;20.38;;
15454;SDS011;21057;51.024;7.540;2023-08-24T09:29:24;22.52;;;20.80;;
15454;SDS011;21057;51.024;7.540;2023-08-24T09:31:51;22.20;;;20.67;;
15454;SDS011;21057;51.024;7.540;2023-08-24T09:34:18;21.30;;;20.00;;
15454;SDS011;21057;51.024;7.540;2023-08-24T09:36:46;20.40;;;19.20;;
15454;SDS011;21057;51.024;7.540;2023-08-24T09:39:14;20.95;;;19.48;;
15454;SDS011;21057;51.024;7.540;2023-08-24T09:41:46;20.75;;;19.35;;
15454;SDS011;21057;51.024;7.540;2023-08-24T09:44:16;20.80;;;19.27;;
15454;SDS011;21057;51.024;7.540;2023-08-24T09:46:43;20.05;;;18.85;;
15454;SDS011;21057;51.024;7.540;2023-08-24T09:49:11;20.77;;;19.25;;
15454;SDS011;21057;51.024;7.540;2023-08-24T09:51:38;20.48;;;19.08;;
15454;SDS011;21057;51.024;7.540;2023-08-24T09:54:07;19.38;;;18.17;;
15454;SDS011;21057;51.024;7.540;2023-08-24T09:56:36;19.45;;;18.30;;
15454;SDS011;21057;51.024;7.540;2023-08-24T09:59:09;19.67;;;18.35;;
15454;SDS011;21057;51.024;7.540;2023-08-24T10:01:40;19.60;;;18.23;;
15454;SDS011;21057;51.024;7.540;2023-08-24T10:04:09;20.35;;;18.88;;
15454;SDS011;21057;51.024;7.540;2023-08-24T10:06:38;19.75;;;18.55;;
15454;SDS011;21057;51.024;7.540;2023-08-24T10:09:06;19.50;;;18.30;;
15454;SDS011;21057;51.024;7.540;2023-08-24T10:11:40;19.40;;;18.20;;
15454;SDS011;21057;51.024;7.540;2023-08-24T10:14:15;20.05;;;18.60;;
15454;SDS011;21057;51.024;7.540;2023-08-24T10:16:45;19.23;;;18.02;;
15454;SDS011;21057;51.024;7.540;2023-08-24T10:19:16;19.85;;;18.55;;
15454;SDS011;21057;51.024;7.540;2023-08-24T10:21:46;20.25;;;18.65;;
15454;SDS011;21057;51.024;7.540;2023-08-24T10:24:13;20.35;;;18.60;;
15454;SDS011;21057;51.024;7.540;2023-08-24T10:26:42;20.27;;;18.88;;
15454;SDS011;21057;51.024;7.540;2023-08-24T10:29:09;20.48;;;19.08;;
15454;SDS011;21057;51.024;7.540;2023-08-24T10:31:39;21.30;;;19.70;;
15454;SDS011;21057;51.024;7.540;2023-08-24T10:47:51;21.08;;;19.58;;
15454;SDS011;21057;51.024;7.540;2023-08-24T10:50:19;20.48;;;19.17;;
15454;SDS011;21057;51.024;7.540;2023-08-24T10:52:46;20.50;;;19.20;;
15454;SDS011;21057;51.024;7.540;2023-08-24T10:55:22;20.63;;;19.33;;
15454;SDS011;21057;51.024;7.540;2023-08-24T10:57:56;20.48;;;19.08;;
15454;SDS011;21057;51.024;7.540;2023-08-24T11:00:25;20.27;;;18.98;;
15454;SDS011;21057;51.024;7.540;2023-08-24T11:02:54;20.15;;;18.85;;
15454;SDS011;21057;51.024;7.540;2023-08-24T11:05:22;20.17;;;18.92;;
15454;SDS011;21057;51.024;7.540;2023-08-24T11:07:53;20.55;;;18.95;;
15454;SDS011;21057;51.024;7.540;2023-08-24T11:10:21;20.08;;;18.77;;
15454;SDS011;21057;51.024;7.540;2023-08-24T11:13:08;19.98;;;18.75;;
15454;SDS011;21057;51.024;7.540;2023-08-24T11:15:39;20.10;;;18.80;;
15454;SDS011;21057;51.024;7.540;2023-08-24T11:18:13;20.80;;;19.30;;
15454;SDS011;21057;51.024;7.540;2023-08-24T11:20:46;20.38;;;18.98;;
15454;SDS011;21057;51.024;7.540;2023-08-24T11:23:14;19.50;;;18.17;;
15454;SDS011;21057;51.024;7.540;2023-08-24T11:25:42;19.60;;;18.38;;
15454;SDS011;21057;51.024;7.540;2023-08-24T11:28:09;19.77;;;18.58;;
15454;SDS011;21057;51.024;7.540;2023-08-24T11:30:36;18.90;;;17.60;;
15454;SDS011;21057;51.024;7.540;2023-08-24T11:33:03;19.70;;;18.50;;
15454;SDS011;21057;51.024;7.540;2023-08-24T11:35:36;19.52;;;18.33;;
15454;SDS011;21057;51.024;7.540;2023-08-24T11:38:03;20.42;;;19.00;;
15454;SDS011;21057;51.024;7.540;2023-08-24T11:40:30;20.10;;;18.88;;
15454;SDS011;21057;51.024;7.540;2023-08-24T11:42:56;20.08;;;18.77;;
15454;SDS011;21057;51.024;7.540;2023-08-24T11:45:24;19.50;;;18.20;;
15454;SDS011;21057;51.024;7.540;2023-08-24T11:47:57;20.00;;;18.70;;
15454;SDS011;21057;51.024;7.540;2023-08-24T11:50:25;19.50;;;18.20;;
15454;SDS011;21057;51.024;7.540;2023-08-24T11:52:54;19.95;;;18.17;;
15454;SDS011;21057;51.024;7.540;2023-08-24T11:55:21;19.00;;;17.80;;
15454;SDS011;21057;51.024;7.540;2023-08-24T11:57:48;20.15;;;18.75;;
15454;SDS011;21057;51.024;7.540;2023-08-24T12:00:14;19.95;;;18.65;;
15454;SDS011;21057;51.024;7.540;2023-08-24T12:02:43;20.10;;;18.70;;
15454;SDS011;21057;51.024;7.540;2023-08-24T12:05:19;19.90;;;18.60;;
15454;SDS011;21057;51.024;7.540;2023-08-24T12:07:47;19.27;;;18.05;;
15454;SDS011;21057;51.024;7.540;2023-08-24T12:10:15;18.95;;;17.75;;
15454;SDS011;21057;51.024;7.540;2023-08-24T12:12:43;20.15;;;18.55;;
15454;SDS011;21057;51.024;7.540;2023-08-24T12:15:14;18.95;;;17.65;;
15454;SDS011;21057;51.024;7.540;2023-08-24T12:17:43;20.27;;;18.67;;
15454;SDS011;21057;51.024;7.540;2023-08-24T12:20:16;19.48;;;18.00;;
15454;SDS011;21057;51.024;7.540;2023-08-24T12:22:49;19.45;;;18.15;;
15454;SDS011;21057;51.024;7.540;2023-08-24T12:25:24;19.65;;;18.35;;
15454;SDS011;21057;51.024;7.540;2023-08-24T12:27:52;20.77;;;19.38;;
15454;SDS011;21057;51.024;7.540;2023-08-24T12:30:19;20.63;;;19.25;;
15454;SDS011;21057;51.024;7.540;2023-08-24T12:32:47;20.05;;;18.70;;
15454;SDS011;21057;51.024;7.540;2023-08-24T12:35:15;19.60;;;18.30;;
15454;SDS011;21057;51.024;7.540;2023-08-24T12:37:42;20.30;;;19.00;;
15454;SDS011;21057;51.024;7.540;2023-08-24T12:40:09;20.25;;;18.85;;
15454;SDS011;21057;51.024;7.540;2023-08-24T12:42:38;20.85;;;19.23;;
15454;SDS011;21057;51.024;7.540;2023-08-24T12:45:05;20.20;;;18.90;;
15454;SDS011;21057;51.024;7.540;2023-08-24T12:47:33;20.33;;;19.02;;
15454;SDS011;21057;51.024;7.540;2023-08-24T12:50:03;20.67;;;19.23;;
15454;SDS011;21057;51.024;7.540;2023-08-24T12:52:31;20.05;;;18.65;;
15454;SDS011;21057;51.024;7.540;2023-08-24T12:54:59;20.65;;;19.25;;
15454;SDS011;21057;51.024;7.540;2023-08-24T12:57:25;20.40;;;19.02;;
15454;SDS011;21057;51.024;7.540;2023-08-24T12:59:54;20.13;;;18.83;;
15454;SDS011;21057;51.024;7.540;2023-08-24T13:02:20;20.30;;;18.90;;
15454;SDS011;21057;51.024;7.540;2023-08-24T13:04:47;20.13;;;18.77;;
15454;SDS011;21057;51.024;7.540;2023-08-24T13:07:14;20.75;;;19.15;;
15454;SDS011;21057;51.024;7.540;2023-08-24T13:09:41;20.63;;;19.27;;
15454;SDS011;21057;51.024;7.540;2023-08-24T13:12:08;20.77;;;19.48;;
15454;SDS011;21057;51.024;7.540;2023-08-24T13:14:34;20.80;;;19.40;;
15454;SDS011;21057;51.024;7.540;2023-08-24T13:17:03;21.42;;;19.63;;
15454;SDS011;21057;51.024;7.540;2023-08-24T13:19:30;20.50;;;19.20;;
15454;SDS011;21057;51.024;7.540;2023-08-24T13:21:56;19.98;;;18.73;;
15454;SDS011;21057;51.024;7.540;2023-08-24T13:24:23;21.35;;;19.63;;
15454;SDS011;21057;51.024;7.540;2023-08-24T13:26:50;20.10;;;18.80;;
15454;SDS011;21057;51.024;7.540;2023-08-24T13:29:17;21.13;;;19.73;;
15454;SDS011;21057;51.024;7.540;2023-08-24T13:31:43;20.88;;;19.48;;
15454;SDS011;21057;51.024;7.540;2023-08-24T13:34:12;20.40;;;19.00;;
15454;SDS011;21057;51.024;7.540;2023-08-24T13:36:39;21.23;;;19.83;;
15454;SDS011;21057;51.024;7.540;2023-08-24T13:39:06;20.73;;;19.42;;
15454;SDS011;21057;51.024;7.540;2023-08-24T13:41:33;21.55;;;20.15;;
15454;SDS011;21057;51.024;7.540;2023-08-24T13:44:00;21.70;;;20.20;;
15454;SDS011;21057;51.024;7.540;2023-08-24T13:46:27;21.40;;;20.10;;
15454;SDS011;21057;51.024;7.540;2023-08-24T13:48:54;20.70;;;19.40;;
15454;SDS011;21057;51.024;7.540;2023-08-24T13:51:22;21.08;;;19.73;;
15454;SDS011;21057;51.024;7.540;2023-08-24T13:53:49;19.95;;;18.75;;
15454;SDS011;21057;51.024;7.540;2023-08-24T13:56:16;20.92;;;19.58;;
15454;SDS011;21057;51.024;7.540;2023-08-24T13:58:42;20.95;;;19.45;;
15454;SDS011;21057;51.024;7.540;2023-08-24T14:01:09;21.70;;;20.20;;
15454;SDS011;21057;51.024;7.540;2023-08-24T14:03:37;21.67;;;20.27;;
15454;SDS011;21057;51.024;7.540;2023-08-24T14:06:05;20.90;;;19.58;;
15454;SDS011;21057;51.024;7.540;2023-08-24T14:08:33;21.50;;;20.10;;
15454;SDS011;21057;51.024;7.540;2023-08-24T14:11:00;20.65;;;19.23;;
15454;SDS011;21057;51.024;7.540;2023-08-24T14:13:27;21.25;;;19.70;;
15454;SDS011;21057;51.024;7.540;2023-08-24T14:15:54;20.40;;;19.10;;
15454;SDS011;21057;51.024;7.540;2023-08-24T14:18:21;21.20;;;19.75;;
15454;SDS011;21057;51.024;7.540;2023-08-24T14:20:48;20.95;;;19.55;;
15454;SDS011;21057;51.024;7.540;2023-08-24T14:23:15;22.00;;;20.50;;
15454;SDS011;21057;51.024;7.540;2023-08-24T14:25:43;22.00;;;20.50;;
15454;SDS011;21057;51.024;7.540;2023-08-24T14:28:12;21.60;;;20.30;;
15454;SDS011;21057;51.024;7.540;2023-08-24T14:30:39;22.00;;;20.50;;
15454;SDS011;21057;51.024;7.540;2023-08-24T14:33:06;21.98;;;20.48;;
15454;SDS011;21057;51.024;7.540;2023-08-24T14:35:33;22.63;;;21.13;;
15454;SDS011;21057;51.024;7.540;2023-08-24T14:38:00;21.67;;;20.27;;